Time;durP1;ratioP1;P1;durP2;ratioP2;P2;SDS_P1;SDS_P2;PMS_P1;PMS_P2;Temp;Humidity;BMP_temperature;BMP_pressure;BME280_temperature;BME280_humidity;BME280_pressure;Samples;Min_cycle;Max_cycle;Signal;HPM_P1;HPM_P2
2023/09/20 00:02:25;;;;;;;3.55;1.45;;;;;;;16.76;76.49;100602.94;5040496;28;20033;-76
2023/09/20 00:04:50;;;;;;;3.08;1.40;;;;;;;16.78;76.78;100595.28;5024949;28;20508;-76
2023/09/20 00:07:16;;;;;;;4.97;1.50;;;;;;;16.78;76.90;100601.50;5040416;28;20037;-75
2023/09/20 00:09:42;;;;;;;5.30;1.25;;;;;;;16.79;77.01;100591.47;5041228;28;20541;-76
2023/09/20 00:12:07;;;;;;;2.63;1.40;;;;;;;16.79;77.02;100597.66;5039264;28;20040;-75
2023/09/20 00:14:33;;;;;;;3.20;1.55;;;;;;;16.82;76.80;100593.56;5039343;28;20410;-76
2023/09/20 00:17:00;;;;;;;4.32;1.83;;;;;;;16.83;77.06;100595.16;5021121;28;20025;-75
2023/09/20 00:19:26;;;;;;;3.65;1.63;;;;;;;16.83;76.42;100595.94;5036168;28;20075;-76
2023/09/20 00:21:52;;;;;;;3.13;1.50;;;;;;;16.85;76.63;100588.31;5038400;28;20029;-75
2023/09/20 00:24:19;;;;;;;4.80;1.60;;;;;;;16.83;77.63;100587.03;5038659;28;20646;-77
2023/09/20 00:26:44;;;;;;;6.00;1.50;;;;;;;16.81;78.09;100583.84;5039012;28;20029;-76
2023/09/20 00:29:10;;;;;;;3.95;1.35;;;;;;;16.82;77.52;100582.75;5018681;28;20083;-75
2023/09/20 00:31:37;;;;;;;3.78;1.30;;;;;;;16.81;77.29;100589.25;5040841;28;20095;-75
2023/09/20 00:34:03;;;;;;;5.32;1.58;;;;;;;16.83;76.72;100581.63;5036631;28;20024;-75
2023/09/20 00:36:30;;;;;;;5.13;1.52;;;;;;;16.83;76.54;100581.63;5039021;28;20047;-75
2023/09/20 00:38:57;;;;;;;6.50;1.77;;;;;;;16.86;76.68;100581.78;5022649;28;20128;-77
2023/09/20 00:41:24;;;;;;;5.60;1.63;;;;;;;16.88;76.38;100589.59;5023285;28;20612;-76
2023/09/20 00:43:52;;;;;;;3.20;1.25;;;;;;;16.88;77.34;100589.59;5023811;28;20127;-78
2023/09/20 00:46:21;;;;;;;3.25;1.30;;;;;;;16.83;77.36;100592.44;5036123;28;20044;-74
2023/09/20 00:48:50;;;;;;;6.45;1.58;;;;;;;16.85;76.69;100582.09;5039469;28;20040;-75
2023/09/20 00:51:17;;;;;;;4.38;1.80;;;;;;;16.89;76.72;100585.78;5035100;28;20040;-77
2023/09/20 00:53:43;;;;;;;3.95;1.40;;;;;;;16.89;77.11;100591.19;5072370;28;20033;-76
2023/09/20 00:56:09;;;;;;;5.28;1.30;;;;;;;16.89;76.66;100585.78;5021656;28;20051;-76
2023/09/20 00:58:35;;;;;;;4.82;1.65;;;;;;;16.91;76.33;100588.97;5056814;28;20120;-77
2023/09/20 01:01:04;;;;;;;4.40;1.67;;;;;;;16.90;76.99;100588.16;5005014;28;20138;-77
2023/09/20 01:03:32;;;;;;;3.95;1.42;;;;;;;16.94;76.39;100574.81;5039002;28;20032;-76
2023/09/20 01:06:00;;;;;;;3.78;1.60;;;;;;;16.93;76.21;100570.50;5040128;28;20128;-77
2023/09/20 01:08:26;;;;;;;4.03;1.33;;;;;;;16.96;76.28;100574.50;5037717;28;20033;-77
2023/09/20 01:10:52;;;;;;;5.25;1.75;;;;;;;16.98;76.07;100577.66;5067745;28;20078;-76
2023/09/20 01:13:18;;;;;;;4.05;1.52;;;;;;;16.95;76.08;100571.00;5023047;28;20111;-76
2023/09/20 01:15:44;;;;;;;4.82;1.58;;;;;;;16.96;76.54;100575.28;5037917;28;20494;-77
2023/09/20 01:18:12;;;;;;;5.45;1.52;;;;;;;16.94;76.35;100574.81;5022165;28;20048;-77
2023/09/20 01:20:40;;;;;;;4.95;1.42;;;;;;;16.93;76.80;100581.31;5073339;28;20033;-77
2023/09/20 01:23:09;;;;;;;6.07;2.00;;;;;;;16.90;76.56;100579.25;5022975;28;20549;-76
2023/09/20 01:25:40;;;;;;;8.57;1.67;;;;;;;16.90;76.35;100573.84;5041842;28;20041;-74
2023/09/20 01:28:08;;;;;;;5.50;1.85;;;;;;;16.90;76.23;100579.25;5039090;28;20562;-76
2023/09/20 01:30:38;;;;;;;5.05;1.40;;;;;;;16.88;76.99;100579.56;4996502;28;20463;-76
2023/09/20 01:33:09;;;;;;;5.07;1.70;;;;;;;16.92;76.33;100579.72;5019783;28;20098;-77
2023/09/20 01:35:37;;;;;;;5.65;1.67;;;;;;;16.93;76.48;100570.50;5023623;28;20045;-74
2023/09/20 01:38:10;;;;;;;9.70;1.80;;;;;;;16.96;76.64;100580.69;5055349;28;20112;-75
2023/09/20 01:40:36;;;;;;;7.50;1.73;;;;;;;16.96;76.27;100579.91;5035780;28;20529;-75
2023/09/20 01:43:08;;;;;;;5.30;1.70;;;;;;;16.99;75.86;100581.97;5041251;28;20032;-74
2023/09/20 01:45:36;;;;;;;5.05;1.30;;;;;;;16.98;75.95;100573.06;5000794;28;20103;-76
2023/09/20 01:48:06;;;;;;;4.22;1.92;;;;;;;17.01;75.74;100572.44;5051526;28;20949;-76
2023/09/20 01:50:32;;;;;;;5.05;2.00;;;;;;;16.99;75.58;100585.47;5065390;28;20036;-75
2023/09/20 01:52:59;;;;;;;4.82;1.73;;;;;;;17.00;75.96;100587.09;5036324;28;20106;-78
2023/09/20 01:55:28;;;;;;;4.57;1.60;;;;;;;16.95;75.64;100576.41;5019104;28;20133;-75
2023/09/20 01:57:55;;;;;;;6.70;1.58;;;;;;;16.97;75.94;100576.88;5022099;28;20056;-75
2023/09/20 02:00:33;;;;;;;6.72;1.85;;;;;;;16.99;76.06;100585.47;5020868;28;20408;-76
2023/09/20 02:03:06;;;;;;;5.47;1.80;;;;;;;16.96;75.82;100578.00;5047231;28;20456;-77
2023/09/20 02:05:33;;;;;;;6.68;1.50;;;;;;;16.98;75.84;100599.31;5017490;28;20028;-76
2023/09/20 02:07:59;;;;;;;6.25;2.10;;;;;;;16.99;76.32;100590.88;5039256;28;20039;-76
2023/09/20 02:10:25;;;;;;;6.03;1.67;;;;;;;16.98;76.39;100594.69;5037364;28;20449;-74
2023/09/20 02:12:56;;;;;;;6.75;2.17;;;;;;;16.98;76.32;100594.69;5065836;28;20029;-74
2023/09/20 02:15:25;;;;;;;6.30;1.58;;;;;;;16.98;76.16;100593.91;5045273;28;20090;-73
2023/09/20 02:17:51;;;;;;;5.40;1.60;;;;;;;16.98;75.90;100610.91;5038456;28;20060;-75
2023/09/20 02:20:22;;;;;;;5.22;1.70;;;;;;;17.01;76.33;100610.31;5037469;28;20578;-73
2023/09/20 02:22:55;;;;;;;3.70;1.73;;;;;;;17.01;75.76;100612.22;5022718;28;20036;-73
2023/09/20 02:25:22;;;;;;;4.93;1.83;;;;;;;17.00;76.51;100608.72;5036825;28;20033;-74
2023/09/20 02:27:57;;;;;;;9.50;2.63;;;;;;;16.99;76.15;100609.00;5021989;28;20115;-74
2023/09/20 02:30:28;;;;;;;7.03;1.63;;;;;;;16.98;76.28;100583.88;5049110;28;20107;-74
2023/09/20 02:32:55;;;;;;;4.35;1.85;;;;;;;16.96;76.27;100604.25;5070788;28;20032;-73
2023/09/20 02:35:21;;;;;;;2.78;1.40;;;;;;;16.99;76.16;100601.69;5037058;28;20037;-73
2023/09/20 02:37:48;;;;;;;5.47;1.77;;;;;;;16.99;76.86;100593.56;5038041;28;20033;-73
2023/09/20 02:40:14;;;;;;;5.22;2.22;;;;;;;16.99;76.74;100595.50;5029158;28;20047;-73
2023/09/20 02:42:47;;;;;;;4.45;1.40;;;;;;;17.00;77.78;100599.78;5032962;28;20029;-74
2023/09/20 02:45:13;;;;;;;5.40;2.10;;;;;;;16.94;77.81;100599.16;5030597;28;20112;-75
2023/09/20 02:47:40;;;;;;;6.53;1.73;;;;;;;16.94;77.61;100603.78;5005167;28;20031;-74
2023/09/20 02:50:14;;;;;;;7.43;2.15;;;;;;;16.94;77.31;100598.38;5036927;28;20051;-74
2023/09/20 02:52:40;;;;;;;4.05;1.40;;;;;;;16.91;78.14;100603.28;5018972;28;20044;-74
2023/09/20 02:55:07;;;;;;;4.32;1.70;;;;;;;16.88;79.64;100611.25;5035231;28;20025;-77
2023/09/20 02:57:37;;;;;;;7.35;1.88;;;;;;;16.83;78.45;100603.25;5038913;28;20033;-75
2023/09/20 03:00:15;;;;;;;3.55;1.90;;;;;;;16.86;78.48;100599.91;5051478;28;20122;-75
2023/09/20 03:02:45;;;;;;;3.45;1.60;;;;;;;16.85;79.63;100598.31;5040746;28;20028;-74
2023/09/20 03:05:15;;;;;;;4.35;1.90;;;;;;;16.83;79.65;100592.44;5022937;28;20033;-74
2023/09/20 03:07:45;;;;;;;6.00;2.13;;;;;;;16.80;78.91;100590.34;5041218;28;20028;-74
2023/09/20 03:10:12;;;;;;;5.32;1.70;;;;;;;16.82;77.78;100588.94;5039260;28;20533;-76
2023/09/20 03:12:46;;;;;;;5.28;1.70;;;;;;;16.85;77.93;100596.41;5053097;28;20042;-76
2023/09/20 03:15:17;;;;;;;8.32;2.20;;;;;;;16.88;78.03;100586.91;5037276;28;20040;-74
2023/09/20 03:17:44;;;;;;;7.13;1.77;;;;;;;16.88;78.53;100589.59;5005875;28;20824;-75
2023/09/20 03:20:11;;;;;;;6.35;2.47;;;;;;;16.84;78.48;100591.31;5024557;28;20033;-75
2023/09/20 03:22:38;;;;;;;8.02;2.42;;;;;;;16.88;77.75;100592.31;5040340;28;20036;-75
2023/09/20 03:25:05;;;;;;;5.50;1.95;;;;;;;16.89;78.20;100583.88;5041663;28;20052;-74
2023/09/20 03:27:31;;;;;;;4.28;1.60;;;;;;;16.90;77.57;100582.75;5039078;28;20094;-75
2023/09/20 03:29:57;;;;;;;5.65;1.73;;;;;;;16.91;77.70;100588.97;5038813;28;20041;-73
2023/09/20 03:32:24;;;;;;;5.63;1.60;;;;;;;16.92;77.93;100585.13;5036813;28;20525;-72
2023/09/20 03:34:51;;;;;;;4.93;1.60;;;;;;;16.90;79.17;100577.34;5022712;28;20094;-73
2023/09/20 03:37:18;;;;;;;6.28;1.95;;;;;;;16.84;79.55;100577.81;5022487;28;20097;-74
2023/09/20 03:39:46;;;;;;;3.15;1.45;;;;;;;16.82;80.74;100585.44;5038236;28;20041;-73
2023/09/20 03:42:11;;;;;;;6.45;1.98;;;;;;;16.80;79.70;100577.66;5021783;28;20140;-74
2023/09/20 03:44:39;;;;;;;6.45;2.10;;;;;;;16.80;79.72;100571.41;5022442;28;20049;-74
2023/09/20 03:47:06;;;;;;;5.05;1.92;;;;;;;16.80;78.93;100571.41;5018868;28;20044;-74
2023/09/20 03:49:32;;;;;;;4.97;1.85;;;;;;;16.85;78.39;100573.97;5023734;28;20510;-74
2023/09/20 03:52:01;;;;;;;4.82;1.75;;;;;;;16.89;78.21;100575.75;5054737;28;20037;-76
2023/09/20 03:54:28;;;;;;;3.95;1.90;;;;;;;16.90;78.31;100582.75;5068793;28;20108;-75
2023/09/20 03:56:55;;;;;;;5.25;1.63;;;;;;;16.88;79.52;100584.97;5023706;28;20033;-73
2023/09/20 03:59:21;;;;;;;3.58;1.80;;;;;;;16.86;80.10;100586.38;5038074;28;20607;-74
2023/09/20 04:01:47;;;;;;;5.78;1.50;;;;;;;16.84;79.82;100588.63;5025444;28;20037;-74
2023/09/20 04:04:16;;;;;;;5.68;2.20;;;;;;;16.86;78.64;100586.38;5028847;28;20048;-73
2023/09/20 04:06:44;;;;;;;6.07;1.80;;;;;;;16.88;78.72;100584.19;5045058;28;20079;-74
2023/09/20 04:09:10;;;;;;;7.30;2.47;;;;;;;16.90;78.33;100579.25;5035021;28;20041;-74
2023/09/20 04:11:41;;;;;;;7.45;1.90;;;;;;;16.92;77.81;100587.84;5037030;28;20032;-74
2023/09/20 04:14:08;;;;;;;3.35;2.00;;;;;;;16.95;77.57;100575.59;5023901;28;20087;-74
2023/09/20 04:16:39;;;;;;;4.70;1.60;;;;;;;16.96;77.69;100580.69;5022773;28;20036;-73
2023/09/20 04:19:06;;;;;;;5.82;2.33;;;;;;;16.96;77.83;100588.81;5040865;28;20186;-76
2023/09/20 04:21:33;;;;;;;5.63;1.60;;;;;;;16.95;78.01;100587.22;5025671;28;20891;-76
2023/09/20 04:24:03;;;;;;;5.50;1.80;;;;;;;16.94;77.84;100582.94;5025405;28;20032;-73
2023/09/20 04:26:31;;;;;;;4.03;1.63;;;;;;;16.97;77.63;100581.50;5060160;28;20044;-74
2023/09/20 04:28:58;;;;;;;5.28;1.55;;;;;;;16.97;78.49;100587.69;5028072;28;20047;-73
2023/09/20 04:31:23;;;;;;;5.97;1.55;;;;;;;16.96;77.88;100583.41;5023239;28;20192;-74
2023/09/20 04:33:50;;;;;;;7.97;1.80;;;;;;;16.96;77.59;100585.31;5023129;28;20135;-74
2023/09/20 04:36:15;;;;;;;7.00;2.13;;;;;;;16.97;77.85;100579.56;5038239;28;20043;-74
2023/09/20 04:38:41;;;;;;;;;;;;;;;16.95;77.43;100584.50;5043760;28;20057;-74
2023/09/20 04:41:11;;;;;;;5.68;2.15;;;;;;;16.98;77.24;100577.66;5033984;28;20020;-76
2023/09/20 04:43:39;;;;;;;6.35;2.10;;;;;;;17.00;76.86;100587.09;5012621;28;20067;-74
2023/09/20 04:46:06;;;;;;;6.20;2.10;;;;;;;17.00;76.84;100570.03;5039628;28;20027;-77
2023/09/20 04:48:33;;;;;;;7.18;1.83;;;;;;;17.01;76.92;100582.47;5043307;28;20120;-74
2023/09/20 04:51:01;;;;;;;7.50;1.73;;;;;;;17.01;77.24;100585.97;5026370;28;20033;-75
2023/09/20 04:53:27;;;;;;;6.40;2.25;;;;;;;17.02;77.07;100584.06;5025203;28;20039;-73
2023/09/20 04:55:52;;;;;;;7.15;1.73;;;;;;;17.01;76.86;100585.97;5041144;28;20064;-74
2023/09/20 04:58:20;;;;;;;7.05;2.50;;;;;;;17.02;77.02;100589.47;5035115;28;20033;-75
2023/09/20 05:00:46;;;;;;;5.05;2.05;;;;;;;17.02;76.98;100587.56;5036863;28;20033;-73
2023/09/20 05:03:15;;;;;;;5.72;2.42;;;;;;;17.02;76.90;100584.84;5016678;28;20041;-76
2023/09/20 05:05:44;;;;;;;6.25;1.60;;;;;;;17.04;76.67;100596.13;5041946;28;20131;-74
2023/09/20 05:08:09;;;;;;;5.18;2.03;;;;;;;17.04;76.69;100590.72;5035915;28;20056;-75
2023/09/20 05:10:35;;;;;;;8.55;1.88;;;;;;;17.06;76.58;100593.91;5024287;28;20111;-74
2023/09/20 05:13:02;;;;;;;5.40;1.95;;;;;;;17.07;76.42;100587.41;5041350;28;20118;-75
2023/09/20 05:15:28;;;;;;;4.53;1.90;;;;;;;17.08;76.48;100583.59;5040038;28;20518;-75
2023/09/20 05:17:56;;;;;;;4.72;1.90;;;;;;;17.10;76.18;100586.75;5021077;28;20498;-75
2023/09/20 05:20:22;;;;;;;4.35;2.00;;;;;;;17.10;76.62;100592.16;5054779;28;20047;-74
2023/09/20 05:22:47;;;;;;;4.47;2.10;;;;;;;17.11;76.59;100599.16;5022988;28;20033;-74
2023/09/20 05:25:13;;;;;;;5.85;1.98;;;;;;;17.09;76.55;100596.00;5020696;28;20067;-77
2023/09/20 05:27:39;;;;;;;6.50;1.80;;;;;;;17.09;76.56;100596.00;5026103;28;20383;-75
2023/09/20 05:30:05;;;;;;;6.32;1.83;;;;;;;17.09;76.39;100585.16;5015389;28;20127;-74
2023/09/20 05:32:31;;;;;;;4.38;1.65;;;;;;;17.09;76.51;100585.16;5041929;28;20048;-73
2023/09/20 05:34:56;;;;;;;5.13;1.77;;;;;;;17.10;76.07;100583.25;5058183;28;20040;-73
2023/09/20 05:37:22;;;;;;;6.82;2.08;;;;;;;17.12;75.93;100581.81;5039826;28;20458;-72
2023/09/20 05:39:49;;;;;;;4.68;2.13;;;;;;;17.12;76.34;100584.53;5039633;28;20056;-74
2023/09/20 05:42:15;;;;;;;5.07;2.20;;;;;;;17.13;76.35;100574.50;5026099;28;20040;-73
2023/09/20 05:44:41;;;;;;;6.13;1.80;;;;;;;17.13;76.15;100585.31;5040013;28;20033;-73
2023/09/20 05:47:11;;;;;;;4.05;1.60;;;;;;;17.13;76.20;100586.13;5041637;28;20452;-75
2023/09/20 05:49:36;;;;;;;5.75;1.80;;;;;;;17.14;76.14;100592.34;5021566;28;20034;-74
2023/09/20 05:52:05;;;;;;;3.65;1.70;;;;;;;17.14;76.13;100595.84;5034524;28;20033;-74
2023/09/20 05:54:32;;;;;;;6.25;1.70;;;;;;;17.15;76.54;100588.53;5067400;28;20043;-74
2023/09/20 05:56:59;;;;;;;6.78;2.30;;;;;;;17.15;76.41;100583.13;5043425;28;20463;-74
2023/09/20 05:59:26;;;;;;;5.68;2.13;;;;;;;17.14;76.49;100593.13;5033655;28;20577;-76
2023/09/20 06:01:52;;;;;;;8.13;2.10;;;;;;;17.14;76.52;100598.56;5036532;28;20486;-76
2023/09/20 06:04:19;;;;;;;10.63;2.40;;;;;;;17.14;76.55;100603.97;5023789;28;20033;-74
2023/09/20 06:06:45;;;;;;;4.38;1.70;;;;;;;17.18;76.68;100604.13;5049389;28;20052;-73
2023/09/20 06:09:10;;;;;;;6.80;2.00;;;;;;;17.19;76.68;100606.50;5016117;28;20034;-73
2023/09/20 06:11:36;;;;;;;4.57;1.70;;;;;;;17.23;76.61;100605.88;5041030;28;20728;-75
2023/09/20 06:14:04;;;;;;;3.83;1.60;;;;;;;17.28;76.78;100620.06;5069914;28;20619;-73
2023/09/20 06:16:30;;;;;;;4.90;1.70;;;;;;;17.32;76.69;100607.47;5047712;28;20123;-74
2023/09/20 06:18:56;;;;;;;5.10;1.70;;;;;;;17.36;76.74;100604.94;5032618;28;20056;-74
2023/09/20 06:21:23;;;;;;;5.80;1.90;;;;;;;17.38;76.06;100603.50;5034346;28;20135;-73
2023/09/20 06:23:49;;;;;;;3.67;1.83;;;;;;;17.39;76.18;100599.66;5017043;28;20039;-74
2023/09/20 06:26:15;;;;;;;4.25;2.08;;;;;;;17.42;75.93;100607.16;5036488;28;20037;-76
2023/09/20 06:28:41;;;;;;;5.93;1.83;;;;;;;17.44;76.58;100610.34;5040232;28;20033;-75
2023/09/20 06:31:14;;;;;;;5.00;1.60;;;;;;;17.44;75.88;100612.25;5016172;28;20052;-76
2023/09/20 06:33:40;;;;;;;4.15;1.60;;;;;;;17.44;76.04;100621.16;5038193;28;20033;-75
2023/09/20 06:36:06;;;;;;;4.85;1.70;;;;;;;17.44;76.59;100617.66;5040627;28;20041;-75
2023/09/20 06:38:34;;;;;;;6.97;1.90;;;;;;;17.45;76.63;100616.53;5033971;28;20030;-74
2023/09/20 06:41:00;;;;;;;4.78;1.75;;;;;;;17.45;76.63;100624.66;5037836;28;20036;-74
2023/09/20 06:43:26;;;;;;;5.85;2.17;;;;;;;17.44;76.26;100618.47;5035847;28;20037;-74
2023/09/20 06:45:52;;;;;;;;;;;;;;;17.45;76.29;100630.09;5035718;28;20037;-75
2023/09/20 06:48:22;;;;;;;5.00;2.25;;;;;;;17.43;76.30;100626.91;5040503;28;19912;-74
2023/09/20 06:50:49;;;;;;;6.05;1.70;;;;;;;17.44;76.16;100633.91;5039540;28;20076;-74
2023/09/20 06:53:17;;;;;;;5.10;2.25;;;;;;;17.47;76.50;100634.06;5039161;28;20041;-75
2023/09/20 06:55:49;;;;;;;7.55;1.90;;;;;;;17.49;76.35;100631.06;5041390;28;20064;-74
2023/09/20 06:58:14;;;;;;;5.30;2.10;;;;;;;17.49;76.65;100625.63;5038826;28;20044;-73
2023/09/20 07:00:40;;;;;;;6.55;1.80;;;;;;;17.50;75.40;100632.63;5038895;28;20493;-74
2023/09/20 07:03:06;;;;;;;5.13;2.08;;;;;;;17.54;76.29;100635.50;5037192;28;20743;-76
2023/09/20 07:05:32;;;;;;;4.03;1.73;;;;;;;17.54;76.87;100636.28;5039618;28;20036;-74
2023/09/20 07:07:58;;;;;;;6.97;2.00;;;;;;;17.55;76.47;100643.31;5037642;28;20144;-75
2023/09/20 07:10:25;;;;;;;5.82;2.20;;;;;;;17.56;75.70;100636.78;5031366;28;20091;-73
2023/09/20 07:12:54;;;;;;;4.38;1.70;;;;;;;17.60;75.88;100635.00;5024654;28;20033;-73
2023/09/20 07:15:24;;;;;;;6.75;2.60;;;;;;;17.62;75.90;100649.06;5054648;28;20083;-76
2023/09/20 07:18:07;;;;;;;6.88;2.05;;;;;;;17.64;76.22;100652.22;5005033;28;20059;-74
2023/09/20 07:20:34;;;;;;;5.38;2.08;;;;;;;17.65;75.95;100645.69;5032756;28;20033;-72
2023/09/20 07:22:59;;;;;;;5.95;2.25;;;;;;;17.67;75.65;100638.03;5024215;28;20041;-74
2023/09/20 07:25:27;;;;;;;5.93;2.40;;;;;;;17.72;76.11;100642.53;5039594;28;20208;-74
2023/09/20 07:27:59;;;;;;;6.18;2.00;;;;;;;17.71;75.81;100644.44;5039533;28;20113;-74
2023/09/20 07:30:31;;;;;;;6.78;2.30;;;;;;;17.72;75.79;100635.19;5053959;28;20098;-73
2023/09/20 07:32:59;;;;;;;4.72;1.67;;;;;;;17.74;75.72;100638.38;5039144;28;20037;-74
2023/09/20 07:35:36;;;;;;;7.75;2.10;;;;;;;17.73;75.02;100636.78;5037504;28;20065;-74
2023/09/20 07:38:04;;;;;;;6.25;1.95;;;;;;;17.79;76.14;100644.75;5039855;28;20029;-73
2023/09/20 07:40:31;;;;;;;6.85;2.20;;;;;;;17.85;76.36;100635.34;5021294;28;20040;-75
2023/09/20 07:43:04;;;;;;;6.13;1.80;;;;;;;17.87;75.43;100646.66;5040631;28;20044;-76
2023/09/20 07:45:38;;;;;;;6.07;2.30;;;;;;;17.89;75.16;100644.44;5006667;28;20142;-75
2023/09/20 07:48:13;;;;;;;8.23;1.95;;;;;;;17.96;75.00;100650.16;5042500;28;20394;-76
2023/09/20 07:50:44;;;;;;;8.30;1.85;;;;;;;18.01;75.26;100641.84;5025204;28;20029;-76
2023/09/20 07:53:15;;;;;;;3.92;1.88;;;;;;;18.05;75.81;100644.72;5026505;28;20037;-76
2023/09/20 07:55:45;;;;;;;4.25;1.75;;;;;;;18.09;75.32;100646.47;5043450;28;20063;-75
2023/09/20 07:58:19;;;;;;;8.65;2.05;;;;;;;18.15;75.64;100647.88;5040246;28;20399;-75
2023/09/20 08:00:56;;;;;;;4.22;1.77;;;;;;;18.22;76.05;100637.38;5035382;28;20033;-76
2023/09/20 08:03:22;;;;;;;4.28;1.95;;;;;;;18.26;74.63;100649.13;5037160;28;20040;-75
2023/09/20 08:05:48;;;;;;;5.97;1.85;;;;;;;18.28;73.95;100652.31;5045862;28;20532;-75
2023/09/20 08:08:14;;;;;;;6.28;2.30;;;;;;;18.33;74.57;100647.84;5049903;28;20538;-75
2023/09/20 08:10:41;;;;;;;12.15;1.85;;;;;;;18.36;73.50;100639.09;5026478;28;20068;-77
2023/09/20 08:13:07;;;;;;;10.38;1.83;;;;;;;18.42;73.84;100651.31;5040450;28;20123;-75
2023/09/20 08:15:42;;;;;;;6.72;2.67;;;;;;;18.46;74.46;100642.22;5042577;28;20039;-76
2023/09/20 08:20:57;;;;;;;4.55;1.70;;;;;;;18.60;74.30;100647.44;5038393;28;20040;-75
2023/09/20 09:02:14;;;;;;;5.40;1.67;;;;;;;19.82;69.49;100647.47;5041532;28;20029;-76
2023/09/20 09:04:49;;;;;;;5.13;1.63;;;;;;;19.83;70.37;100654.50;5024806;28;20037;-75
2023/09/20 09:07:17;;;;;;;3.40;2.00;;;;;;;19.76;70.71;100654.25;5021976;28;20541;-75
2023/09/20 09:09:45;;;;;;;6.45;2.03;;;;;;;19.68;69.36;100646.97;5038517;28;20091;-75
2023/09/20 09:12:11;;;;;;;3.72;1.48;;;;;;;19.67;69.95;100648.09;5071657;28;20028;-76
2023/09/20 09:14:38;;;;;;;4.90;1.50;;;;;;;19.66;70.00;100655.47;5037749;28;20410;-75
2023/09/20 09:17:06;;;;;;;6.47;1.75;;;;;;;19.63;70.26;100637.88;5041318;28;20029;-75
2023/09/20 09:19:33;;;;;;;4.07;1.80;;;;;;;19.65;70.17;100636.78;5037451;28;20037;-76
2023/09/20 09:21:59;;;;;;;6.20;1.50;;;;;;;19.64;69.49;100635.97;5041331;28;20425;-73
2023/09/20 09:24:27;;;;;;;5.22;1.65;;;;;;;19.60;69.81;100651.34;5053202;28;20107;-74
2023/09/20 09:27:08;;;;;;;3.63;1.25;;;;;;;19.64;70.82;100646.81;5039048;28;20072;-75
2023/09/20 09:29:34;;;;;;;8.35;1.92;;;;;;;19.63;70.51;100651.47;5036301;28;20051;-75
2023/09/20 09:32:04;;;;;;;4.40;1.42;;;;;;;19.63;70.78;100651.47;5036977;28;20037;-76
2023/09/20 09:34:30;;;;;;;4.68;1.88;;;;;;;19.67;70.87;100648.88;5032913;28;20124;-76
2023/09/20 09:36:57;;;;;;;3.90;1.55;;;;;;;19.73;71.00;100650.28;5021496;28;20085;-76
2023/09/20 09:39:25;;;;;;;4.22;1.73;;;;;;;19.77;71.13;100645.75;5032828;28;20107;-77
2023/09/20 09:41:51;;;;;;;4.40;1.50;;;;;;;19.81;71.79;100652.13;5037572;28;20042;-75
2023/09/20 09:44:17;;;;;;;6.60;2.10;;;;;;;19.83;70.79;100659.94;5040846;28;20056;-76
2023/09/20 09:46:43;;;;;;;4.07;1.45;;;;;;;19.82;69.80;100658.34;5039031;28;20052;-77
2023/09/20 09:49:11;;;;;;;5.32;1.88;;;;;;;19.86;70.90;100653.84;5024668;28;20426;-78
2023/09/20 09:51:51;;;;;;;3.10;1.70;;;;;;;19.88;70.39;100651.56;5038874;28;20087;-77
2023/09/20 09:54:18;;;;;;;5.35;1.90;;;;;;;19.88;70.74;100655.09;5055204;28;20112;-76
2023/09/20 09:56:44;;;;;;;4.10;1.40;;;;;;;19.90;70.48;100654.75;5040344;28;20067;-76
2023/09/20 09:59:10;;;;;;;4.15;1.65;;;;;;;19.92;70.62;100657.94;5036398;28;20037;-75
2023/09/20 10:01:39;;;;;;;4.40;2.13;;;;;;;19.92;70.44;100665.31;5069106;28;20044;-75
2023/09/20 10:04:08;;;;;;;4.22;1.95;;;;;;;19.93;70.76;100650.59;5022720;28;20070;-74
2023/09/20 10:06:38;;;;;;;6.05;2.10;;;;;;;19.92;70.08;100662.59;5037244;28;20044;-75
2023/09/20 10:09:10;;;;;;;5.30;1.80;;;;;;;19.89;70.06;100656.66;5052866;28;20028;-73
2023/09/20 10:11:37;;;;;;;4.82;1.90;;;;;;;19.82;70.38;100648.25;5025697;28;20040;-75
2023/09/20 10:14:07;;;;;;;4.57;1.92;;;;;;;19.87;69.71;100658.94;5018769;28;20144;-76
2023/09/20 10:16:35;;;;;;;5.90;2.10;;;;;;;19.93;69.35;100653.31;5025485;28;20118;-76
2023/09/20 10:19:02;;;;;;;5.75;1.90;;;;;;;20.00;70.59;100646.19;5038037;28;20825;-75
2023/09/20 10:21:30;;;;;;;6.25;1.98;;;;;;;20.05;69.56;100645.16;5060006;28;20048;-75
2023/09/20 10:23:58;;;;;;;7.30;2.35;;;;;;;20.06;69.19;100652.22;5052246;28;20033;-76
2023/09/20 10:26:26;;;;;;;4.63;1.65;;;;;;;20.11;69.77;100649.25;5040126;28;20080;-75
2023/09/20 10:29:17;;;;;;;5.45;2.10;;;;;;;20.18;69.28;100649.50;5037856;28;20024;-76
2023/09/20 10:31:43;;;;;;;5.03;2.55;;;;;;;20.20;69.18;100646.47;5055627;28;20448;-75
2023/09/20 10:34:09;;;;;;;5.63;2.03;;;;;;;20.28;68.61;100643.66;5037330;28;20036;-76
2023/09/20 10:36:35;;;;;;;4.78;1.90;;;;;;;20.37;68.64;100647.06;5024792;28;20077;-76
2023/09/20 10:39:17;;;;;;;5.40;2.30;;;;;;;20.49;68.64;100653.69;5052352;28;20087;-75
2023/09/20 10:41:43;;;;;;;6.90;2.08;;;;;;;20.47;68.99;100656.75;5002432;28;20149;-76
2023/09/20 10:44:29;;;;;;;5.07;2.45;;;;;;;20.37;68.21;100657.16;5032725;28;20037;-77
2023/09/20 10:46:58;;;;;;;5.30;1.98;;;;;;;20.29;68.45;100655.31;5017860;28;20127;-75
2023/09/20 10:49:54;;;;;;;3.88;2.03;;;;;;;20.21;69.26;100654.28;5037523;28;20032;-75
2023/09/20 10:52:37;;;;;;;5.43;2.00;;;;;;;20.15;68.62;100653.69;4998309;28;20045;-77
2023/09/20 10:55:16;;;;;;;5.45;2.08;;;;;;;20.33;68.95;100662.47;5038116;28;20549;-74
2023/09/20 10:57:43;;;;;;;5.97;2.10;;;;;;;20.54;68.61;100650.75;5018909;28;20046;-75
2023/09/20 11:00:09;;;;;;;9.75;2.70;;;;;;;20.79;68.04;100646.09;5037329;28;20398;-74
2023/09/20 11:02:38;;;;;;;6.85;2.53;;;;;;;20.92;68.27;100645.75;5042558;28;20106;-75
2023/09/20 11:05:04;;;;;;;10.70;2.70;;;;;;;21.01;67.59;100642.13;5043781;28;20024;-73
2023/09/20 11:07:32;;;;;;;6.90;2.40;;;;;;;21.10;67.38;100632.69;5041108;28;20036;-76
2023/09/20 11:09:58;;;;;;;3.95;2.03;;;;;;;21.18;67.15;100636.41;5040098;28;20438;-76
2023/09/20 11:12:24;;;;;;;5.15;2.22;;;;;;;21.15;67.60;100639.84;5026198;28;20116;-73
2023/09/20 11:14:51;;;;;;;6.70;2.85;;;;;;;21.27;68.16;100648.00;5041072;28;20524;-74
2023/09/20 11:17:18;;;;;;;8.70;2.67;;;;;;;21.40;68.10;100638.66;5038893;28;20472;-76
2023/09/20 11:19:44;;;;;;;8.23;2.72;;;;;;;21.60;67.33;100639.63;5042206;28;20029;-77
2023/09/20 11:22:13;;;;;;;6.20;2.15;;;;;;;21.61;65.76;100643.13;5077045;28;20448;-76
2023/09/20 11:24:44;;;;;;;5.38;2.53;;;;;;;21.70;65.17;100641.06;5026298;28;20037;-75
2023/09/20 11:27:11;;;;;;;5.60;2.10;;;;;;;21.62;65.33;100636.56;5027216;28;20048;-74
2023/09/20 11:29:40;;;;;;;5.43;2.30;;;;;;;21.71;64.62;100639.94;5041832;28;20487;-73
2023/09/20 11:32:12;;;;;;;5.78;2.10;;;;;;;21.85;64.12;100647.72;5024562;28;20030;-75
2023/09/20 11:34:47;;;;;;;5.85;2.53;;;;;;;21.98;64.06;100638.31;5036015;28;20571;-73
2023/09/20 11:37:15;;;;;;;7.03;2.22;;;;;;;22.04;65.22;100635.00;5017381;28;20041;-74
2023/09/20 11:39:44;;;;;;;5.38;2.83;;;;;;;21.96;63.29;100630.50;5024314;28;20433;-74
2023/09/20 11:42:10;;;;;;;7.22;2.33;;;;;;;22.08;63.84;100635.06;5056341;28;20045;-74
2023/09/20 11:44:36;;;;;;;5.97;2.35;;;;;;;22.15;63.55;100639.94;5073700;28;20035;-76
2023/09/20 11:47:03;;;;;;;5.30;2.33;;;;;;;22.33;63.93;100641.22;5044525;28;20041;-75
2023/09/20 11:49:29;;;;;;;5.55;2.35;;;;;;;22.42;64.46;100641.03;5035021;28;20573;-75
2023/09/20 11:51:59;;;;;;;4.68;2.30;;;;;;;22.32;64.04;100634.19;5039948;28;20032;-74
2023/09/20 11:54:28;;;;;;;7.47;2.33;;;;;;;22.23;64.53;100639.03;5023494;28;20828;-74
2023/09/20 11:56:57;;;;;;;4.07;2.42;;;;;;;22.13;64.81;100644.97;5061978;28;20029;-74
2023/09/20 11:59:23;;;;;;;7.78;2.30;;;;;;;21.99;64.45;100637.97;5026246;28;20056;-74
2023/09/20 12:01:49;;;;;;;5.65;2.58;;;;;;;21.98;62.97;100630.94;5037301;28;20124;-75
2023/09/20 12:04:16;;;;;;;4.78;2.17;;;;;;;22.17;64.36;100632.25;5042300;28;20037;-76
2023/09/20 12:06:42;;;;;;;4.82;2.60;;;;;;;22.20;63.45;100621.41;5024363;28;20048;-76
2023/09/20 12:09:09;;;;;;;4.82;2.35;;;;;;;22.29;62.21;100623.97;5027217;28;20040;-77
2023/09/20 12:11:35;;;;;;;4.43;2.20;;;;;;;22.33;63.17;100614.72;5043182;28;20052;-77
2023/09/20 12:14:02;;;;;;;5.53;2.15;;;;;;;22.53;61.77;100612.09;5039382;28;20152;-75